메인 페이지
METAR-TAF:

METAR-TAF

공항 :

댈러스 포트워스 국제공항

댈러스 / 포트워스, 텍사스, 미국

위도: 32-53-49N, 경도: 097-01-19W, 고도: 183m

현재 날씨관측

예보는 1 시간 3분 전, 16:53시(UTC)에 발표되었습니다.
남서8kt
온도 28°C
습도 70%
기압 1014 hPa
시정: 16.1km
고도 2000ft 상공 구름 보통

METAR: KDFW 251653Z 22008KT 10SM SCT020 28/22 A2995 RMK AO2 SLP134 T02830217

시각: 12:56 (17:56 UTC)

예보

예보는 27분 전, 17:29시(UTC)에 발표되었습니다.
예보 대상 시간: 25일 18시부터 26일 24시까지 (UTC)
남남서9kt
시정: 10km
고도 2500ft 상공 구름 보통
25일 2000시부터 (UTC)
남남서10kt
시정: 10km
고도 5000ft 상공 구름 보통
시계 내 소나기
26일 0000시부터 (UTC)
남남동8kt
시정: 10km
고도 25000ft 상공 구름 많음
26일 0800시부터 (UTC)
17kt
시정: 10km
고도 1200ft 상공 구름 많음
시계 내 소나기
26일 1800시부터 (UTC)
15kt
시정: 10km
고도 2500ft 상공 구름 많음

TAF: KDFW 251729Z 2518/2624 21009KT P6SM SCT025 FM252000 20010KT P6SM VCSH SCT050 FM260000 16008KT P6SM BKN250 FM260800 36017KT P6SM VCSH BKN012 FM261800 01015KT P6SM BKN025

4,000개 이상의 공항 관측 자료 및 예보 (METAR 및 TAF 보고).

지도상에서 검색 가능한 기상관측소가 노란 점과 빨간 점으로 표시되어 있습니다.

기상관측소 명을 보려면 표시 위로 마우스를 이동하세요.

날씨 관측과 예보를 보려면 클릭하세요.

지도 변경 : 확대하려면 엑스 표시가 있는 녹색 버튼, 축소하려면 빼기 표시가 있는 녹색 버튼, 다음 페이지의 지도를 보려면 녹색 화살표를 클릭하세요.


METAR-TAF: